Time;durP1;ratioP1;P1;durP2;ratioP2;P2;SDS_P1;SDS_P2;PMS_P1;PMS_P2;Temp;Humidity;BMP_temperature;BMP_pressure;BME280_temperature;BME280_humidity;BME280_pressure;Samples;Min_cycle;Max_cycle;Signal;HPM_P1;HPM_P2
2022/11/18 00:01:33;;;;;;;22.80;16.55;;;;;;;5.16;77.18;97428.69;5107128;28;20047;-70
2022/11/18 00:04:00;;;;;;;21.92;16.65;;;;;;;5.92;77.39;97548.09;5106989;28;20065;-70
2022/11/18 00:06:30;;;;;;;23.70;16.95;;;;;;;6.37;77.32;97625.78;5108051;28;20048;-70
2022/11/18 00:08:59;;;;;;;23.85;16.17;;;;;;;6.38;77.32;97616.13;5106861;28;20090;-71
2022/11/18 00:14:26;;;;;;;25.48;17.20;;;;;;;6.33;77.64;97615.56;5048643;28;20045;-70
2022/11/18 00:16:55;;;;;;;25.02;17.17;;;;;;;6.32;77.52;97614.72;5098816;28;20113;-70
2022/11/18 00:19:23;;;;;;;28.00;18.00;;;;;;;6.34;77.58;97612.00;5108002;28;20050;-70
2022/11/18 00:21:51;;;;;;;21.77;18.73;;;;;;;6.35;78.23;97605.78;5106601;28;20239;-70
2022/11/18 00:24:18;;;;;;;25.67;17.27;;;;;;;6.36;77.78;97618.84;5107648;28;20097;-70
2022/11/18 00:26:45;;;;;;;24.13;17.63;;;;;;;6.37;77.92;97617.91;5106526;28;20177;-70
2022/11/18 00:29:12;;;;;;;20.83;16.25;;;;;;;5.86;77.85;97534.50;5107644;28;20044;-70
2022/11/18 00:31:39;;;;;;;25.02;17.67;;;;;;;6.35;77.86;97604.00;5107323;28;20054;-70
2022/11/18 00:34:07;;;;;;;25.08;17.45;;;;;;;6.32;77.89;97616.50;5106458;28;20042;-71
2022/11/18 00:36:34;;;;;;;20.48;16.40;;;;;;;6.35;77.97;97611.06;5106375;28;20263;-71
2022/11/18 00:39:02;;;;;;;25.30;18.00;;;;;;;6.19;77.90;97579.66;5107410;28;20063;-70
2022/11/18 00:42:50;;;;;;;25.85;18.15;;;;;;;6.37;78.03;97601.28;5106222;28;20043;-71
2022/11/18 00:44:15;;;;;;;29.42;19.13;;;;;;;6.16;78.09;97564.06;5106838;28;20043;-70
2022/11/18 00:46:42;;;;;;;27.02;18.63;;;;;;;6.27;78.30;97587.88;5107054;28;20097;-71
2022/11/18 00:49:10;;;;;;;24.73;16.20;;;;;;;6.33;78.41;97597.16;5106128;28;20039;-71
2022/11/18 00:51:37;;;;;;;25.40;19.15;;;;;;;6.32;78.57;97592.84;5105969;28;20048;-71
2022/11/18 00:54:05;;;;;;;23.40;15.85;;;;;;;6.31;78.50;97599.88;5106060;28;20040;-71
2022/11/18 00:56:32;;;;;;;24.08;17.23;;;;;;;5.00;78.32;97379.78;5107118;28;20040;-71
2022/11/18 00:58:59;;;;;;;23.15;15.38;;;;;;;6.36;78.66;97594.31;5106668;28;20243;-71
2022/11/18 01:01:25;;;;;;;25.20;18.30;;;;;;;6.39;78.71;97607.28;5106660;28;20048;-71
2022/11/18 01:03:52;;;;;;;23.52;16.58;;;;;;;6.05;78.64;97554.25;5106722;28;20059;-71
2022/11/18 01:06:19;;;;;;;25.85;18.80;;;;;;;6.18;78.80;97570.06;5106887;28;20044;-72
2022/11/18 01:08:46;;;;;;;22.30;16.98;;;;;;;6.40;78.88;97611.59;5106842;28;20040;-72
2022/11/18 01:13:58;;;;;;;23.35;16.08;;;;;;;6.42;79.03;97602.66;5106773;28;20059;-72
2022/11/18 01:16:27;;;;;;;24.33;18.38;;;;;;;6.37;79.05;97582.84;5106410;28;20036;-71
2022/11/18 01:18:54;;;;;;;22.67;16.55;;;;;;;6.43;79.00;97595.59;5106614;28;20044;-72
2022/11/18 01:21:21;;;;;;;25.50;17.27;;;;;;;6.45;79.14;97592.88;5105532;28;20044;-71
2022/11/18 01:23:48;;;;;;;26.27;18.25;;;;;;;5.84;79.02;97497.81;5106333;28;20039;-72
2022/11/18 01:26:17;;;;;;;22.73;16.30;;;;;;;6.40;79.24;97578.22;5106588;28;20040;-71
2022/11/18 01:28:44;;;;;;;27.55;17.35;;;;;;;6.40;79.29;97574.75;5106838;28;20048;-72
2022/11/18 01:31:13;;;;;;;23.85;16.85;;;;;;;6.40;79.17;97574.75;5106249;28;20036;-71
2022/11/18 01:33:40;;;;;;;26.08;16.30;;;;;;;6.41;79.34;97571.19;5106469;28;20287;-71
2022/11/18 01:36:15;;;;;;;23.85;17.83;;;;;;;5.93;79.27;97480.59;5106087;28;20056;-71
2022/11/18 01:38:42;;;;;;;25.45;17.75;;;;;;;6.41;79.34;97560.66;5105403;28;20074;-70
2022/11/18 01:41:09;;;;;;;28.30;19.70;;;;;;;6.40;79.19;97554.53;5105188;28;20334;-71
2022/11/18 01:43:51;;;;;;;22.60;17.80;;;;;;;6.41;79.12;97548.34;5106336;28;20345;-71
2022/11/18 01:46:19;;;;;;;24.85;18.40;;;;;;;6.41;79.17;97545.72;5105134;28;20039;-70
2022/11/18 01:48:48;;;;;;;23.30;17.00;;;;;;;6.37;79.43;97538.97;5106473;28;20078;-71
2022/11/18 01:51:18;;;;;;;25.00;15.85;;;;;;;3.18;79.31;97015.56;5105804;28;20059;-71
2022/11/18 01:53:49;;;;;;;23.50;16.45;;;;;;;6.29;79.78;97530.75;5106445;28;20052;-71
2022/11/18 01:56:18;;;;;;;22.88;16.85;;;;;;;6.31;79.89;97533.28;5105078;28;20090;-71
2022/11/18 01:58:50;;;;;;;23.48;16.33;;;;;;;6.33;79.65;97531.38;5106297;28;20044;-71
2022/11/18 02:01:17;;;;;;;27.23;17.63;;;;;;;6.35;79.50;97546.13;5105798;28;20315;-71
2022/11/18 02:03:46;;;;;;;31.95;18.35;;;;;;;6.37;79.64;97531.06;5105707;28;20040;-70
2022/11/18 02:06:13;;;;;;;26.65;18.35;;;;;;;6.37;79.76;97538.13;5105244;28;20101;-71
2022/11/18 02:08:42;;;;;;;28.02;18.05;;;;;;;6.37;79.56;97525.81;5105874;28;20055;-70
2022/11/18 02:11:49;;;;;;;22.80;16.00;;;;;;;6.34;79.77;97539.16;5105723;28;20066;-71
2022/11/18 02:14:01;;;;;;;22.70;16.60;;;;;;;6.32;79.92;97556.00;5105493;28;20082;-71
2022/11/18 02:16:38;;;;;;;30.80;19.13;;;;;;;6.31;80.01;97564.84;5104666;28;20036;-71
2022/11/18 02:19:15;;;;;;;25.67;17.38;;;;;;;6.30;80.27;97557.88;5104666;28;20044;-71
2022/11/18 02:21:56;;;;;;;28.35;19.38;;;;;;;6.30;80.43;97555.25;5104689;28;20044;-70
2022/11/18 02:24:33;;;;;;;27.65;18.60;;;;;;;6.32;80.21;97550.75;5105444;28;20035;-70
2022/11/18 02:27:30;;;;;;;25.92;17.90;;;;;;;6.33;80.42;97541.91;5105776;28;20039;-72
2022/11/18 02:30:04;;;;;;;29.15;18.33;;;;;;;6.35;80.31;97545.28;5105663;28;20044;-69
2022/11/18 02:32:34;;;;;;;30.08;18.85;;;;;;;6.33;80.39;97545.38;5104900;28;20039;-71
2022/11/18 02:35:06;;;;;;;32.72;19.85;;;;;;;6.34;80.40;97544.44;5104572;28;20053;-70
2022/11/18 02:37:39;;;;;;;28.38;19.85;;;;;;;6.34;80.62;97540.97;5107232;28;20046;-70
2022/11/18 02:40:12;;;;;;;33.15;19.27;;;;;;;6.02;80.56;97496.59;5108534;28;20036;-70
2022/11/18 02:42:42;;;;;;;32.78;20.35;;;;;;;6.33;80.86;97534.00;5109911;28;20265;-70
2022/11/18 02:45:15;;;;;;;27.75;19.50;;;;;;;6.31;81.02;97531.47;5109633;28;20288;-70
2022/11/18 02:47:45;;;;;;;26.10;17.95;;;;;;;6.30;81.15;97528.94;5109289;28;20052;-70
2022/11/18 02:50:17;;;;;;;35.20;19.17;;;;;;;6.14;81.28;97500.19;5108729;28;20093;-70
2022/11/18 02:52:46;;;;;;;26.50;17.65;;;;;;;6.32;81.15;97534.94;5109471;28;20284;-68
2022/11/18 02:55:15;;;;;;;29.33;17.98;;;;;;;6.34;81.49;97527.81;5109706;28;20200;-68
2022/11/18 02:57:44;;;;;;;34.60;19.48;;;;;;;5.72;81.52;97439.00;5109047;28;20044;-69
2022/11/18 03:00:14;;;;;;;31.52;18.48;;;;;;;6.34;81.82;97530.44;5108975;28;20044;-69
2022/11/18 03:02:43;;;;;;;28.40;18.30;;;;;;;6.34;81.80;97528.66;5109250;28;20044;-69
2022/11/18 03:05:15;;;;;;;28.92;18.80;;;;;;;6.35;81.96;97524.22;5109535;28;20036;-68
2022/11/18 03:07:46;;;;;;;27.58;18.15;;;;;;;6.37;81.88;97520.53;5108109;28;20046;-69
2022/11/18 03:10:13;;;;;;;29.65;19.25;;;;;;;6.37;82.12;97517.06;5108880;28;20067;-68
2022/11/18 03:12:45;;;;;;;25.52;17.30;;;;;;;6.36;82.38;97520.66;5109376;28;20055;-68
2022/11/18 03:15:23;;;;;;;24.25;16.70;;;;;;;6.37;82.31;97511.81;5108242;28;20315;-69
2022/11/18 03:17:59;;;;;;;24.15;16.40;;;;;;;6.39;82.17;97512.53;5109069;28;20074;-68
2022/11/18 03:20:29;;;;;;;29.00;18.05;;;;;;;5.84;82.27;97424.19;5108961;28;20054;-69
2022/11/18 03:23:00;;;;;;;24.83;16.08;;;;;;;5.48;82.43;97374.06;5109144;28;20070;-68
2022/11/18 03:25:36;;;;;;;26.60;17.88;;;;;;;6.17;82.62;97478.09;5109015;28;20047;-68
2022/11/18 03:28:10;;;;;;;26.60;18.40;;;;;;;6.35;82.79;97501.38;5107927;28;20181;-68
2022/11/18 03:30:42;;;;;;;21.97;16.83;;;;;;;6.36;82.76;97494.34;5108873;28;20093;-68
2022/11/18 03:33:12;;;;;;;22.83;14.57;;;;;;;6.16;82.73;97472.00;5108557;28;20414;-68
2022/11/18 03:35:43;;;;;;;21.08;14.50;;;;;;;6.41;82.73;97502.75;5107607;28;20357;-68
2022/11/18 03:38:15;;;;;;;23.58;14.60;;;;;;;6.36;83.01;97492.56;5108336;28;20036;-68
2022/11/18 03:40:46;;;;;;;22.88;15.85;;;;;;;6.36;83.12;97496.97;5108600;28;20251;-68
2022/11/18 03:43:18;;;;;;;19.23;14.35;;;;;;;6.37;83.16;97498.66;5107360;28;20040;-69
2022/11/18 03:45:48;;;;;;;21.35;13.80;;;;;;;6.31;83.16;97486.75;5107312;28;20081;-69
2022/11/18 03:48:17;;;;;;;21.33;13.18;;;;;;;6.37;83.10;97488.13;5107823;28;20044;-70
2022/11/18 03:50:48;;;;;;;18.80;13.07;;;;;;;6.20;83.15;97465.59;5107264;28;20056;-68
2022/11/18 03:53:17;;;;;;;18.95;11.43;;;;;;;5.88;83.08;97425.66;5108540;28;20059;-68
2022/11/18 03:55:51;;;;;;;16.98;11.85;;;;;;;6.19;83.37;97468.31;5107161;28;20040;-68
2022/11/18 03:58:25;;;;;;;20.35;13.73;;;;;;;6.38;83.34;97495.06;5107314;28;20115;-68
2022/11/18 04:00:57;;;;;;;18.73;13.85;;;;;;;6.01;83.20;97426.53;5108154;28;20300;-68
2022/11/18 04:03:24;;;;;;;15.93;11.88;;;;;;;6.40;83.15;97495.81;5106944;28;20330;-68
2022/11/18 04:06:02;;;;;;;18.00;11.93;;;;;;;6.05;83.18;97449.06;5108272;28;20043;-68
2022/11/18 04:08:35;;;;;;;17.52;12.52;;;;;;;6.32;83.14;97513.91;5108159;28;20051;-68
2022/11/18 04:11:09;;;;;;;17.00;12.00;;;;;;;6.06;83.32;97477.03;5108158;28;20047;-68
2022/11/18 04:13:37;;;;;;;17.73;12.43;;;;;;;6.24;83.39;97505.69;5107886;28;20051;-68
2022/11/18 04:16:08;;;;;;;14.77;11.50;;;;;;;6.19;83.56;97508.63;5107850;28;20051;-68
2022/11/18 04:18:35;;;;;;;16.38;12.73;;;;;;;6.20;83.63;97512.09;5107485;28;20036;-68
2022/11/18 04:21:02;;;;;;;19.55;12.65;;;;;;;6.24;83.57;97526.72;5107766;28;20062;-69
2022/11/18 04:23:28;;;;;;;20.15;12.65;;;;;;;6.26;83.57;97514.31;5106859;28;20032;-68
2022/11/18 04:25:55;;;;;;;17.05;12.35;;;;;;;6.23;83.59;97520.63;5107647;28;20056;-68
2022/11/18 04:28:22;;;;;;;19.10;13.60;;;;;;;6.23;83.57;97509.25;5107329;28;20093;-68
2022/11/18 04:30:49;;;;;;;19.48;13.52;;;;;;;6.24;83.75;97513.56;5107519;28;20094;-68
2022/11/18 04:33:17;;;;;;;18.63;13.70;;;;;;;6.24;83.77;97516.22;5107098;28;20071;-68
2022/11/18 04:35:46;;;;;;;19.30;14.30;;;;;;;6.24;83.75;97516.22;5107143;28;20292;-68
2022/11/18 04:38:13;;;;;;;20.30;13.65;;;;;;;6.24;83.69;97518.84;5107116;28;20082;-68
2022/11/18 04:40:40;;;;;;;20.17;14.63;;;;;;;6.25;83.79;97507.38;5107001;28;20066;-68
2022/11/18 04:43:06;;;;;;;17.98;13.10;;;;;;;6.27;83.67;97502.84;5107120;28;20048;-68
2022/11/18 04:45:33;;;;;;;19.85;13.05;;;;;;;6.29;83.57;97493.91;5107523;28;20044;-68
2022/11/18 04:48:00;;;;;;;19.75;14.02;;;;;;;6.31;83.63;97496.44;5107206;28;20074;-69
2022/11/18 04:50:28;;;;;;;20.25;14.18;;;;;;;6.30;83.63;97500.84;5107011;28;20052;-69
2022/11/18 04:52:54;;;;;;;20.13;14.48;;;;;;;6.30;83.68;97494.75;5107136;28;20044;-68
2022/11/18 04:55:21;;;;;;;18.13;13.93;;;;;;;6.31;83.70;97492.03;5107388;28;20095;-68
2022/11/18 04:57:48;;;;;;;21.85;15.23;;;;;;;6.28;83.76;97489.59;5106531;28;20040;-69
2022/11/18 05:00:15;;;;;;;22.85;14.43;;;;;;;5.88;83.90;97428.31;5106698;28;20044;-68
2022/11/18 05:02:42;;;;;;;17.83;13.63;;;;;;;6.24;83.97;97485.47;5106952;28;20052;-69
2022/11/18 05:05:09;;;;;;;18.05;13.20;;;;;;;6.25;84.05;97496.84;5107213;28;20040;-69
2022/11/18 05:07:37;;;;;;;19.70;15.65;;;;;;;6.22;84.01;97503.16;5106892;28;20039;-69
2022/11/18 05:10:05;;;;;;;17.52;14.18;;;;;;;6.25;83.94;97502.09;5106891;28;20090;-69
2022/11/18 05:12:49;;;;;;;17.17;13.23;;;;;;;6.24;83.88;97493.38;5106826;28;20040;-68
2022/11/18 05:15:16;;;;;;;19.45;13.48;;;;;;;6.03;83.91;97461.47;5106782;28;20048;-69
2022/11/18 05:17:42;;;;;;;18.77;13.98;;;;;;;6.24;84.00;97485.47;5106383;28;20044;-68
2022/11/18 05:20:10;;;;;;;21.15;14.50;;;;;;;6.08;83.93;97459.38;5106531;28;20044;-69
2022/11/18 05:22:38;;;;;;;20.05;14.38;;;;;;;6.27;83.75;97476.53;5106626;28;20299;-68
2022/11/18 05:25:06;;;;;;;22.77;14.88;;;;;;;6.29;83.67;97475.50;5106268;28;20044;-68
2022/11/18 05:27:33;;;;;;;17.77;12.95;;;;;;;6.31;83.53;97483.28;5106839;28;20214;-69
2022/11/18 05:29:59;;;;;;;21.75;15.65;;;;;;;6.30;83.74;97484.22;5106488;28;20137;-69
2022/11/18 05:32:26;;;;;;;21.40;14.00;;;;;;;6.08;83.52;97435.69;5106432;28;20296;-69
2022/11/18 05:34:53;;;;;;;16.38;12.40;;;;;;;6.29;83.71;97466.75;5106878;28;20188;-69
2022/11/18 05:37:20;;;;;;;23.45;14.27;;;;;;;6.28;83.75;97470.34;5106271;28;20055;-69
2022/11/18 05:39:48;;;;;;;19.85;13.48;;;;;;;6.27;83.80;97479.16;5106174;28;20281;-68
2022/11/18 05:44:59;;;;;;;18.97;13.60;;;;;;;6.25;83.85;97491.59;5105586;28;20093;-68
2022/11/18 05:47:26;;;;;;;22.13;15.43;;;;;;;6.03;83.98;97460.63;5105893;28;20044;-68
2022/11/18 05:49:52;;;;;;;20.67;14.15;;;;;;;6.15;84.05;97470.31;5104985;28;20048;-68
2022/11/18 05:52:19;;;;;;;20.77;13.80;;;;;;;6.27;84.11;97489.69;5105877;28;20245;-67
2022/11/18 05:54:50;;;;;;;21.35;14.05;;;;;;;6.25;84.09;97495.06;5106232;28;20052;-67
2022/11/18 05:57:17;;;;;;;21.08;13.48;;;;;;;6.24;84.18;97500.44;5104786;28;20085;-68
2022/11/18 05:59:43;;;;;;;21.00;14.85;;;;;;;6.22;84.29;97507.56;5105419;28;20051;-68
2022/11/18 06:02:14;;;;;;;21.42;14.93;;;;;;;6.08;84.33;97487.44;5106140;28;20283;-68
2022/11/18 06:04:44;;;;;;;17.55;12.93;;;;;;;6.21;84.35;97512.00;5105815;28;20040;-67
2022/11/18 06:07:14;;;;;;;18.15;14.73;;;;;;;5.82;84.21;97443.63;5106102;28;20089;-67
2022/11/18 06:09:45;;;;;;;18.48;13.82;;;;;;;6.22;84.28;97505.78;5105629;28;20051;-68
2022/11/18 06:12:16;;;;;;;19.98;13.80;;;;;;;6.23;84.33;97511.88;5105019;28;20055;-68
2022/11/18 06:14:47;;;;;;;19.70;13.80;;;;;;;6.22;84.28;97511.03;5106182;28;20313;-68
2022/11/18 06:17:17;;;;;;;21.33;14.32;;;;;;;6.21;84.35;97501.47;5105809;28;20052;-68
2022/11/18 06:19:44;;;;;;;16.95;12.70;;;;;;;6.05;84.37;97471.88;5105707;28;20044;-68
2022/11/18 06:22:11;;;;;;;21.30;14.10;;;;;;;6.09;84.31;97483.88;5106302;28;20044;-67
2022/11/18 06:24:38;;;;;;;17.83;13.88;;;;;;;6.25;84.37;97512.63;5106069;28;20048;-68
2022/11/18 06:27:05;;;;;;;18.67;12.95;;;;;;;6.25;84.37;97512.63;5105500;28;20040;-68
2022/11/18 06:29:33;;;;;;;19.77;13.15;;;;;;;6.25;84.55;97510.84;5105147;28;20089;-68
2022/11/18 06:32:00;;;;;;;18.95;13.90;;;;;;;6.25;84.39;97513.47;5104609;28;20060;-68
2022/11/18 06:34:27;;;;;;;17.38;12.80;;;;;;;6.26;84.69;97520.41;5105623;28;20294;-68
2022/11/18 06:36:53;;;;;;;21.08;13.27;;;;;;;6.26;84.54;97527.47;5105306;28;20036;-68
2022/11/18 06:39:21;;;;;;;19.05;13.25;;;;;;;6.26;84.54;97527.47;5105537;28;20044;-69
2022/11/18 06:41:47;;;;;;;22.08;12.13;;;;;;;6.26;84.48;97523.06;5105322;28;20044;-68
2022/11/18 06:44:13;;;;;;;19.23;12.02;;;;;;;6.26;84.58;97519.56;5104457;28;20044;-67
2022/11/18 06:46:57;;;;;;;16.40;11.60;;;;;;;6.26;84.45;97527.47;5105543;28;20054;-68
2022/11/18 06:49:24;;;;;;;15.75;10.68;;;;;;;6.06;84.48;97497.22;5105034;28;20044;-68
2022/11/18 06:51:51;;;;;;;15.93;10.23;;;;;;;6.23;84.54;97525.88;5105251;28;20093;-67
2022/11/18 06:54:18;;;;;;;13.50;10.30;;;;;;;6.24;84.52;97539.88;5105173;28;20044;-68
2022/11/18 06:56:45;;;;;;;15.60;9.90;;;;;;;5.65;84.40;97466.63;5104387;28;20207;-68
2022/11/18 06:59:12;;;;;;;13.32;10.10;;;;;;;6.24;84.20;97538.09;5104184;28;20081;-67
2022/11/18 07:01:40;;;;;;;15.65;11.13;;;;;;;6.25;84.34;97547.69;5105194;28;20036;-68
2022/11/18 07:04:09;;;;;;;15.88;10.77;;;;;;;5.76;84.27;97477.28;5105000;28;20036;-69
2022/11/18 07:06:36;;;;;;;14.65;9.35;;;;;;;6.23;84.38;97548.72;5105689;28;20054;-68
2022/11/18 07:09:05;;;;;;;15.15;10.82;;;;;;;6.21;84.34;97545.34;5105417;28;20048;-68
2022/11/18 07:11:32;;;;;;;15.95;11.18;;;;;;;6.21;84.43;97542.72;5105028;28;20036;-68
2022/11/18 07:13:59;;;;;;;14.55;10.82;;;;;;;6.20;84.44;97548.91;5104979;28;20123;-69
2022/11/18 07:16:27;;;;;;;15.20;10.95;;;;;;;6.19;84.35;97550.72;5104840;28;20272;-68
2022/11/18 07:18:55;;;;;;;18.17;12.50;;;;;;;5.87;84.44;97516.00;5105052;28;20082;-68
2022/11/18 07:21:24;;;;;;;16.63;10.85;;;;;;;6.17;84.54;97542.06;5103879;28;20040;-68
2022/11/18 07:23:51;;;;;;;14.73;10.93;;;;;;;6.20;84.28;97549.75;5106932;28;20040;-68
2022/11/18 07:26:18;;;;;;;12.85;10.18;;;;;;;6.23;84.28;97546.09;5107742;28;20040;-68
2022/11/18 07:28:45;;;;;;;17.23;11.65;;;;;;;5.70;84.13;97485.56;5107574;28;20058;-68
2022/11/18 07:31:13;;;;;;;16.75;10.80;;;;;;;6.26;84.05;97540.63;5108751;28;20044;-68
2022/11/18 07:33:41;;;;;;;17.63;10.60;;;;;;;6.26;83.83;97530.09;5108453;28;20070;-68
2022/11/18 07:36:10;;;;;;;15.48;11.23;;;;;;;5.17;83.77;97347.19;5108788;28;20052;-68
2022/11/18 07:38:39;;;;;;;14.55;10.77;;;;;;;6.26;83.77;97522.22;5108271;28;20089;-68
2022/11/18 07:41:07;;;;;;;13.43;9.93;;;;;;;6.26;83.82;97527.47;5108448;28;20211;-68
2022/11/18 07:43:34;;;;;;;16.65;11.85;;;;;;;6.27;83.91;97522.09;5107680;28;20090;-67
2022/11/18 07:46:12;;;;;;;14.00;10.68;;;;;;;6.25;83.87;97515.25;5108170;28;20032;-68
2022/11/18 07:48:39;;;;;;;13.48;9.25;;;;;;;6.14;83.83;97486.19;5107254;28;20044;-68
2022/11/18 07:51:07;;;;;;;14.20;10.57;;;;;;;6.27;83.73;97514.22;5107907;28;20078;-68
2022/11/18 07:53:34;;;;;;;18.23;10.65;;;;;;;6.29;83.64;97516.75;5107973;28;20044;-68
2022/11/18 07:56:02;;;;;;;16.27;10.82;;;;;;;6.30;83.65;97515.78;5108269;28;20284;-68
2022/11/18 07:58:29;;;;;;;16.05;10.70;;;;;;;6.31;83.69;97504.31;5106944;28;20044;-68
2022/11/18 08:00:56;;;;;;;14.55;10.73;;;;;;;6.14;83.71;97486.19;5107312;28;20090;-68
2022/11/18 08:03:26;;;;;;;13.52;10.10;;;;;;;6.29;83.73;97496.53;5108074;28;20044;-68
2022/11/18 08:05:53;;;;;;;16.95;10.18;;;;;;;6.14;83.81;97473.06;5108247;28;20036;-68
2022/11/18 08:08:20;;;;;;;15.07;10.65;;;;;;;6.31;83.82;97504.31;5107643;28;20040;-68
2022/11/18 08:10:46;;;;;;;13.80;9.70;;;;;;;6.12;83.71;97481.03;5107389;28;20036;-68
2022/11/18 08:13:15;;;;;;;13.95;10.02;;;;;;;6.32;83.58;97521.81;5108051;28;20043;-68
2022/11/18 08:15:43;;;;;;;13.55;9.38;;;;;;;6.34;83.72;97525.16;5107553;28;20040;-68
2022/11/18 08:18:10;;;;;;;15.18;9.82;;;;;;;6.34;83.87;97514.66;5106614;28;20093;-68
2022/11/18 08:20:36;;;;;;;17.85;12.95;;;;;;;6.34;83.83;97512.84;5107972;28;20044;-68
2022/11/18 08:23:03;;;;;;;17.42;12.35;;;;;;;6.17;84.01;97488.63;5107594;28;20101;-68
2022/11/18 08:25:30;;;;;;;16.15;11.75;;;;;;;6.37;84.06;97517.91;5107658;28;20111;-67
2022/11/18 08:27:56;;;;;;;14.48;10.73;;;;;;;6.37;83.89;97519.69;5107850;28;20044;-68
2022/11/18 08:30:25;;;;;;;16.95;10.95;;;;;;;6.38;83.90;97518.75;5107461;28;20051;-68
2022/11/18 08:32:52;;;;;;;16.00;11.48;;;;;;;6.37;83.82;97506.53;5107590;28;20288;-68
2022/11/18 08:35:18;;;;;;;17.10;12.63;;;;;;;6.38;83.78;97506.44;5106914;28;20204;-68
2022/11/18 08:37:45;;;;;;;16.17;11.68;;;;;;;6.37;83.92;97515.28;5107730;28;20036;-69
2022/11/18 08:40:13;;;;;;;15.38;10.45;;;;;;;6.36;83.87;97510.97;5107487;28;20093;-69
2022/11/18 08:42:39;;;;;;;18.15;11.98;;;;;;;6.35;83.96;97511.91;5108049;28;20044;-69
2022/11/18 08:45:08;;;;;;;16.23;11.75;;;;;;;5.11;83.98;97308.19;5107587;28;20046;-68
2022/11/18 08:47:37;;;;;;;18.42;12.07;;;;;;;6.40;83.85;97504.56;5106880;28;20044;-69
2022/11/18 08:50:04;;;;;;;15.55;11.13;;;;;;;6.42;83.56;97509.72;5106916;28;20048;-69
2022/11/18 08:52:31;;;;;;;15.10;10.27;;;;;;;6.40;83.69;97503.72;5106900;28;20036;-69
2022/11/18 08:54:58;;;;;;;19.75;12.35;;;;;;;5.63;83.98;97379.16;5106077;28;20044;-68
2022/11/18 08:57:24;;;;;;;13.95;10.07;;;;;;;6.42;84.01;97507.09;5107086;28;20196;-69
2022/11/18 08:59:51;;;;;;;16.20;11.25;;;;;;;6.42;84.03;97494.75;5105893;28;20040;-68
2022/11/18 09:02:20;;;;;;;15.18;11.07;;;;;;;6.26;84.04;97480.97;5106709;28;20040;-68
2022/11/18 09:04:49;;;;;;;13.68;10.32;;;;;;;6.46;83.67;97507.72;5106814;28;20048;-69
2022/11/18 09:07:16;;;;;;;15.65;11.25;;;;;;;6.46;83.65;97500.66;5106634;28;20226;-69
2022/11/18 09:09:43;;;;;;;13.13;10.02;;;;;;;6.49;83.58;97508.34;5106573;28;20051;-68
2022/11/18 09:12:13;;;;;;;11.10;8.93;;;;;;;5.31;83.23;97317.38;5105921;28;20327;-68
2022/11/18 09:14:41;;;;;;;10.63;8.70;;;;;;;4.89;82.95;97239.63;5105305;28;20122;-69
2022/11/18 09:17:08;;;;;;;10.70;7.95;;;;;;;6.49;83.02;97510.97;5105717;28;20052;-69
2022/11/18 09:19:35;;;;;;;11.43;8.68;;;;;;;6.49;82.96;97504.88;5106460;28;20044;-68
2022/11/18 09:22:03;;;;;;;10.57;7.28;;;;;;;6.49;82.85;97500.44;5106136;28;20300;-69
2022/11/18 09:24:30;;;;;;;10.02;7.57;;;;;;;6.16;82.77;97461.47;5106411;28;20209;-69
2022/11/18 09:26:57;;;;;;;9.05;7.93;;;;;;;6.49;82.58;97489.94;5106329;28;20093;-68
2022/11/18 09:29:25;;;;;;;10.40;8.00;;;;;;;6.50;82.71;97490.78;5106439;28;20044;-69
2022/11/18 09:31:52;;;;;;;10.75;8.13;;;;;;;6.51;82.70;97497.72;5106096;28;20061;-70
2022/11/18 09:34:18;;;;;;;8.75;7.75;;;;;;;6.49;82.42;97492.56;5106016;28;20039;-69
2022/11/18 09:36:45;;;;;;;9.85;8.10;;;;;;;6.49;82.71;97495.19;5105048;28;20048;-69
2022/11/18 09:39:14;;;;;;;10.25;7.57;;;;;;;6.50;82.74;97503.94;5105447;28;20044;-69
2022/11/18 09:41:45;;;;;;;9.57;7.20;;;;;;;6.03;82.55;97426.44;5106508;28;20059;-69
2022/11/18 09:44:34;;;;;;;7.88;6.60;;;;;;;5.52;82.41;97334.34;5105140;28;20101;-69
2022/11/18 09:47:12;;;;;;;9.43;7.13;;;;;;;6.48;82.57;97496.13;5104995;28;20089;-69
2022/11/18 09:49:41;;;;;;;9.70;7.68;;;;;;;6.49;82.87;97496.97;5105855;28;20113;-69
2022/11/18 09:52:16;;;;;;;9.32;8.02;;;;;;;6.49;83.14;97489.94;5105485;28;20046;-69
2022/11/18 09:54:45;;;;;;;10.50;8.13;;;;;;;6.51;83.45;97492.44;5105863;28;20047;-69
2022/11/18 09:57:14;;;;;;;9.35;7.40;;;;;;;6.51;83.59;97484.56;5105752;28;20058;-69
2022/11/18 09:59:42;;;;;;;13.10;9.98;;;;;;;6.51;83.57;97479.28;5106389;28;20036;-69
2022/11/18 10:02:28;;;;;;;10.20;8.63;;;;;;;6.52;83.99;97475.72;5105737;28;20078;-69
2022/11/18 10:04:56;;;;;;;8.93;7.40;;;;;;;6.52;83.79;97479.19;5105479;28;20055;-69
2022/11/18 10:07:32;;;;;;;10.10;7.15;;;;;;;6.53;83.92;97478.25;5105662;28;20212;-70
2022/11/18 10:10:12;;;;;;;11.50;8.05;;;;;;;6.52;83.92;97470.44;5104792;28;20040;-69
2022/11/18 10:12:44;;;;;;;8.95;6.88;;;;;;;6.52;83.67;97473.09;5105605;28;20043;-69
2022/11/18 10:15:22;;;;;;;10.95;7.82;;;;;;;6.52;83.92;97473.94;5105754;28;20105;-69
2022/11/18 10:17:58;;;;;;;9.43;7.15;;;;;;;6.35;84.05;97446.13;5105792;28;20036;-70
2022/11/18 10:20:37;;;;;;;10.15;6.63;;;;;;;6.53;83.95;97472.13;5105761;28;20051;-69
2022/11/18 10:23:12;;;;;;;15.52;10.32;;;;;;;6.52;83.97;97467.81;5104505;28;20043;-69
2022/11/18 10:25:41;;;;;;;10.20;7.22;;;;;;;6.53;84.09;97472.97;5105496;28;20044;-69
2022/11/18 10:28:21;;;;;;;9.15;6.97;;;;;;;6.56;84.00;97479.81;5104549;28;20058;-69
2022/11/18 10:30:48;;;;;;;11.00;9.02;;;;;;;5.73;84.34;97324.19;5105691;28;20059;-70
2022/11/18 10:33:34;;;;;;;13.35;8.85;;;;;;;6.61;84.52;97454.03;5104485;28;20036;-69
2022/11/18 10:36:11;;;;;;;;;;;;;;;6.57;85.39;97455.19;5106136;28;20051;-69
2022/11/18 10:38:39;;;;;;;12.10;8.32;;;;;;;5.97;84.86;97361.09;5105262;28;19915;-69
2022/11/18 10:41:11;;;;;;;16.10;10.40;;;;;;;6.63;85.01;97449.50;5105207;28;20052;-69
2022/11/18 10:43:48;;;;;;;14.68;11.00;;;;;;;6.61;84.95;97444.34;5105525;28;20040;-69
2022/11/18 10:46:24;;;;;;;14.18;9.48;;;;;;;6.61;84.81;97454.88;5105814;28;20233;-69
2022/11/18 10:49:12;;;;;;;13.73;8.90;;;;;;;6.23;84.75;97390.88;5105641;28;20334;-69
2022/11/18 10:51:41;;;;;;;16.60;10.05;;;;;;;6.63;84.57;97455.59;5105069;28;20072;-69
2022/11/18 10:54:10;;;;;;;16.13;11.82;;;;;;;6.63;84.60;97445.06;5105195;28;20074;-69
2022/11/18 10:56:49;;;;;;;16.55;10.70;;;;;;;6.65;84.56;97447.59;5105750;28;20226;-69
2022/11/18 10:59:26;;;;;;;15.73;9.52;;;;;;;6.17;84.25;97372.91;5108140;28;20047;-70
2022/11/18 11:02:01;;;;;;;18.70;10.20;;;;;;;6.63;84.31;97452.13;5109538;28;20040;-69
2022/11/18 11:04:29;;;;;;;15.18;10.00;;;;;;;6.58;84.42;97446.34;5109567;28;20044;-69
2022/11/18 11:06:57;;;;;;;15.82;10.65;;;;;;;6.60;84.49;97450.56;5109171;28;20298;-69
2022/11/18 11:09:27;;;;;;;12.43;9.38;;;;;;;6.62;84.55;97448.66;5108661;28;20085;-70
2022/11/18 11:12:02;;;;;;;13.93;10.32;;;;;;;6.64;84.67;97446.75;5108663;28;20322;-70
2022/11/18 11:14:32;;;;;;;;;;;;;;;6.60;85.29;97434.75;5109467;28;20043;-70
2022/11/18 11:17:08;;;;;;;15.85;9.15;;;;;;;6.61;84.88;97439.06;5108620;28;20172;-69
2022/11/18 11:19:49;;;;;;;12.05;8.52;;;;;;;6.66;84.83;97452.75;5108570;28;20341;-70
2022/11/18 11:22:16;;;;;;;14.25;9.80;;;;;;;6.70;84.60;97443.69;5108386;28;20048;-70
2022/11/18 11:24:44;;;;;;;18.13;11.32;;;;;;;6.72;84.41;97439.16;5108806;28;20244;-69
2022/11/18 11:27:34;;;;;;;8.00;6.45;;;;;;;6.67;84.37;97441.28;5108866;28;20064;-69
2022/11/18 11:30:16;;;;;;;13.20;9.27;;;;;;;6.71;84.26;97445.38;5092028;28;20193;-69
2022/11/18 11:33:22;;;;;;;13.95;8.55;;;;;;;6.73;84.36;97442.66;5108728;28;20036;-69
2022/11/18 11:36:08;;;;;;;14.32;9.75;;;;;;;6.70;84.49;97446.34;5102879;28;20052;-69
2022/11/18 11:38:47;;;;;;;16.88;10.95;;;;;;;6.69;84.46;97449.06;5108236;28;20044;-69
2022/11/18 11:41:22;;;;;;;16.90;10.93;;;;;;;6.70;84.48;97442.84;5108352;28;20174;-69
2022/11/18 11:44:16;;;;;;;11.98;8.75;;;;;;;6.71;84.53;97449.81;5108206;28;20043;-69
2022/11/18 11:49:52;;;;;;;15.55;8.95;;;;;;;5.80;84.50;97282.56;5107115;28;20184;-70
2022/11/18 11:52:28;;;;;;;13.23;8.88;;;;;;;6.75;84.34;97446.00;5108554;28;20116;-69